createdAt,value
2019-01-26T00:00:44.635Z,69.00
2019-01-26T00:03:15.040Z,59.40
2019-01-26T00:05:45.213Z,64.47
2019-01-26T00:08:15.111Z,62.47
2019-01-26T00:10:45.011Z,63.67
2019-01-26T00:13:14.957Z,62.73
2019-01-26T00:15:44.988Z,67.87
2019-01-26T00:18:14.996Z,59.07
2019-01-26T00:20:44.886Z,60.70
2019-01-26T00:23:15.155Z,60.73
2019-01-26T00:25:45.335Z,63.90
2019-01-26T00:28:15.280Z,61.17
2019-01-26T00:30:45.161Z,69.53
2019-01-26T00:33:15.205Z,62.67
2019-01-26T00:35:45.561Z,75.87
2019-01-26T00:38:16.434Z,72.63
2019-01-26T00:40:46.603Z,67.90
2019-01-26T00:43:16.530Z,83.33
2019-01-26T00:45:46.437Z,78.00
2019-01-26T00:48:16.362Z,68.93
2019-01-26T00:50:46.370Z,80.90
2019-01-26T00:53:16.380Z,70.73
2019-01-26T00:55:46.430Z,79.07
2019-01-26T00:58:16.429Z,104.53
2019-01-26T01:00:46.766Z,82.07
2019-01-26T01:03:16.753Z,80.97
2019-01-26T01:05:46.741Z,76.87
2019-01-26T01:08:16.772Z,90.80
2019-01-26T01:10:47.136Z,104.03
2019-01-26T01:13:17.476Z,89.53
2019-01-26T01:15:47.460Z,62.63
2019-01-26T01:18:17.480Z,71.97
2019-01-26T01:20:47.465Z,77.73
2019-01-26T01:23:17.716Z,80.77
2019-01-26T01:25:47.833Z,83.73
2019-01-26T01:28:17.795Z,71.30
2019-01-26T01:30:47.726Z,72.53
2019-01-26T01:33:17.920Z,74.40
2019-01-26T01:35:48.153Z,73.00
2019-01-26T01:38:18.088Z,81.63
2019-01-26T01:40:48.376Z,80.10
2019-01-26T01:43:18.582Z,102.03
2019-01-26T01:45:48.549Z,76.03
2019-01-26T01:48:18.667Z,78.10
2019-01-26T01:50:48.623Z,79.30
2019-01-26T01:53:18.504Z,67.30
2019-01-26T01:55:48.490Z,81.63
2019-01-26T01:58:18.359Z,74.00
2019-01-26T02:00:48.515Z,68.10
2019-01-26T02:03:18.411Z,70.23
2019-01-26T02:05:48.646Z,79.13
2019-01-26T02:08:18.747Z,69.10
2019-01-26T02:10:48.699Z,61.60
2019-01-26T02:13:18.691Z,70.80
2019-01-26T02:15:48.839Z,67.37
2019-01-26T02:18:18.770Z,65.00
2019-01-26T02:20:49.146Z,63.33
2019-01-26T02:23:19.036Z,70.43
2019-01-26T02:25:51.087Z,64.87
2019-01-26T02:28:21.039Z,75.17
2019-01-26T02:30:51.293Z,65.57
2019-01-26T02:33:21.646Z,65.43
2019-01-26T02:35:51.737Z,66.53
2019-01-26T02:38:21.635Z,60.33
2019-01-26T02:40:52.345Z,75.67
2019-01-26T02:43:22.920Z,64.00
2019-01-26T02:45:52.797Z,68.83
2019-01-26T02:48:22.725Z,59.90
2019-01-26T02:50:52.645Z,73.23
2019-01-26T02:53:22.598Z,59.53
2019-01-26T02:55:52.479Z,73.00
2019-01-26T02:58:22.351Z,66.50
2019-01-26T03:00:52.480Z,65.00
2019-01-26T03:03:22.611Z,62.30
2019-01-26T03:05:52.549Z,71.13
2019-01-26T03:08:22.443Z,62.30
2019-01-26T03:10:52.409Z,71.03
2019-01-26T03:13:22.302Z,61.53
2019-01-26T03:15:52.207Z,68.50
2019-01-26T03:18:22.229Z,61.50
2019-01-26T03:20:52.428Z,65.70
2019-01-26T03:23:22.300Z,69.20
2019-01-26T03:25:52.221Z,63.00
2019-01-26T03:28:22.115Z,67.83
2019-01-26T03:30:52.015Z,64.70
2019-01-26T03:33:21.916Z,58.30
2019-01-26T03:35:52.077Z,63.23
2019-01-26T03:38:21.952Z,67.43
2019-01-26T03:40:51.955Z,59.33
2019-01-26T03:43:21.987Z,66.67
2019-01-26T03:45:51.930Z,62.33
2019-01-26T03:48:21.844Z,66.17
2019-01-26T03:50:52.278Z,64.93
2019-01-26T03:53:22.217Z,68.13
2019-01-26T03:55:52.204Z,64.00
2019-01-26T03:58:22.161Z,69.87
2019-01-26T04:00:52.348Z,62.77
2019-01-26T04:03:22.382Z,65.77
2019-01-26T04:05:52.505Z,67.40
2019-01-26T04:08:22.389Z,63.90
2019-01-26T04:10:52.523Z,58.67
2019-01-26T04:13:22.490Z,64.30
2019-01-26T04:15:52.388Z,59.10
2019-01-26T04:18:22.264Z,61.87
2019-01-26T04:20:52.277Z,62.00
2019-01-26T04:23:22.189Z,66.20
2019-01-26T04:25:52.098Z,64.40
2019-01-26T04:28:22.303Z,64.20
2019-01-26T04:30:52.681Z,59.03
2019-01-26T04:33:22.583Z,63.73
2019-01-26T04:35:52.906Z,68.40
2019-01-26T04:38:22.770Z,58.97
2019-01-26T04:40:52.669Z,53.17
2019-01-26T04:43:22.637Z,65.43
2019-01-26T04:45:52.537Z,68.53
2019-01-26T04:48:23.125Z,64.70
2019-01-26T04:50:53.621Z,70.93
2019-01-26T04:53:23.585Z,60.10
2019-01-26T04:55:53.511Z,72.83
2019-01-26T04:58:24.082Z,67.80
2019-01-26T05:00:54.853Z,64.53
2019-01-26T05:03:24.759Z,72.20
2019-01-26T05:05:55.044Z,65.03
2019-01-26T05:08:26.831Z,67.10
2019-01-26T05:10:57.236Z,71.83
2019-01-26T05:13:27.130Z,63.57
2019-01-26T05:15:57.066Z,71.37
2019-01-26T05:18:27.144Z,73.43
2019-01-26T05:20:57.003Z,67.27
2019-01-26T05:23:27.182Z,73.27
2019-01-26T05:25:57.365Z,73.23
2019-01-26T05:28:27.263Z,64.43
2019-01-26T05:30:57.150Z,62.67
2019-01-26T05:33:27.096Z,65.60
2019-01-26T05:35:56.993Z,62.40
2019-01-26T05:38:26.979Z,68.67
2019-01-26T05:40:57.159Z,67.63
2019-01-26T05:43:27.043Z,67.33
2019-01-26T05:45:56.921Z,71.70
2019-01-26T05:48:26.815Z,67.83
2019-01-26T05:50:56.705Z,64.20
2019-01-26T05:53:26.658Z,68.33
2019-01-26T05:55:56.565Z,73.87
2019-01-26T05:58:26.547Z,73.77
2019-01-26T06:00:56.429Z,69.93
2019-01-26T06:03:26.347Z,68.87
2019-01-26T06:05:56.249Z,60.53
2019-01-26T06:08:26.152Z,74.00
2019-01-26T06:10:56.040Z,68.30
2019-01-26T06:13:25.951Z,69.17
2019-01-26T06:15:55.918Z,75.80
2019-01-26T06:18:25.933Z,75.77
2019-01-26T06:20:55.831Z,70.83
2019-01-26T06:23:25.938Z,69.10
2019-01-26T06:25:56.049Z,78.03
2019-01-26T06:28:26.175Z,74.00
2019-01-26T06:30:56.044Z,72.40
2019-01-26T06:33:25.921Z,77.87
2019-01-26T06:35:55.812Z,73.53
2019-01-26T06:38:25.701Z,77.77
2019-01-26T06:40:55.601Z,69.83
2019-01-26T06:43:25.474Z,75.97
2019-01-26T06:45:55.382Z,81.00
2019-01-26T06:48:25.275Z,77.50
2019-01-26T06:50:55.168Z,68.83
2019-01-26T06:53:25.181Z,76.43
2019-01-26T06:55:55.145Z,71.57
2019-01-26T06:58:25.054Z,72.73
2019-01-26T07:00:55.117Z,60.03
2019-01-26T07:03:25.118Z,62.03
2019-01-26T07:05:59.816Z,66.40
2019-01-26T07:08:29.788Z,60.33
2019-01-26T07:10:59.750Z,63.77
2019-01-26T07:13:29.660Z,75.03
2019-01-26T07:16:01.121Z,78.97
2019-01-26T07:18:31.205Z,61.83
2019-01-26T07:21:01.358Z,82.30
2019-01-26T07:23:31.318Z,58.03
2019-01-26T07:26:01.339Z,79.13
2019-01-26T07:28:31.255Z,60.30
2019-01-26T07:31:01.154Z,59.03
2019-01-26T07:33:31.303Z,73.43
2019-01-26T07:36:01.434Z,60.33
2019-01-26T07:38:33.055Z,58.67
2019-01-26T07:41:03.178Z,76.53
2019-01-26T07:43:33.322Z,75.33
2019-01-26T07:46:03.285Z,61.33
2019-01-26T07:48:33.160Z,78.80
2019-01-26T07:51:03.140Z,65.80
2019-01-26T07:53:33.338Z,69.27
2019-01-26T07:56:03.217Z,55.77
2019-01-26T07:58:33.189Z,59.40
2019-01-26T08:01:03.081Z,57.10
2019-01-26T08:03:32.957Z,73.97
2019-01-26T08:06:02.885Z,55.97
2019-01-26T08:08:32.769Z,69.73
2019-01-26T08:11:02.675Z,76.30
2019-01-26T08:13:32.707Z,79.27
2019-01-26T08:16:02.624Z,73.47
2019-01-26T08:18:32.799Z,57.10
2019-01-26T08:21:02.710Z,65.87
2019-01-26T08:23:32.936Z,68.57
2019-01-26T08:26:02.923Z,73.13
2019-01-26T08:28:32.843Z,92.97
2019-01-26T08:31:03.096Z,88.50
2019-01-26T08:33:33.052Z,97.57
2019-01-26T08:36:03.239Z,66.93
2019-01-26T08:38:33.330Z,71.63
2019-01-26T08:41:03.877Z,82.77
2019-01-26T08:43:33.897Z,80.47
2019-01-26T08:46:03.891Z,101.60
2019-01-26T08:48:33.891Z,85.13
2019-01-26T08:51:03.863Z,59.00
2019-01-26T08:53:33.770Z,79.60
2019-01-26T08:56:04.165Z,64.37
2019-01-26T08:58:34.047Z,69.30
2019-01-26T09:01:04.112Z,89.17
2019-01-26T09:03:48.563Z,58.87
2019-01-26T09:06:25.120Z,58.73
2019-01-26T09:08:55.233Z,56.27
2019-01-26T09:11:25.271Z,55.57
2019-01-26T09:13:55.160Z,53.43
2019-01-26T09:16:25.655Z,54.30
2019-01-26T09:18:55.684Z,66.93
2019-01-26T09:21:25.785Z,58.43
2019-01-26T09:23:55.894Z,57.77
2019-01-26T09:26:27.140Z,71.77
2019-01-26T09:28:57.367Z,52.50
2019-01-26T09:31:27.404Z,60.53
2019-01-26T09:33:57.754Z,65.70
2019-01-26T09:36:27.725Z,56.57
2019-01-26T09:38:57.904Z,48.20
2019-01-26T09:41:27.908Z,46.83
2019-01-26T09:43:58.061Z,58.47
2019-01-26T09:46:28.036Z,65.73
2019-01-26T09:48:58.394Z,50.90
2019-01-26T09:51:28.282Z,47.80
2019-01-26T09:53:58.161Z,49.00
2019-01-26T09:56:28.066Z,47.40
2019-01-26T09:58:58.269Z,49.30
2019-01-26T10:01:28.319Z,52.33
2019-01-26T10:03:58.224Z,55.13
2019-01-26T10:06:28.273Z,41.17
2019-01-26T10:08:58.182Z,44.40
2019-01-26T10:11:28.068Z,36.17
2019-01-26T10:13:58.013Z,31.50
2019-01-26T10:16:28.113Z,29.07
2019-01-26T10:18:58.248Z,26.70
2019-01-26T10:21:28.255Z,32.40
2019-01-26T10:23:58.233Z,30.13
2019-01-26T10:26:30.935Z,28.50
2019-01-26T10:29:01.284Z,27.77
2019-01-26T10:31:31.338Z,33.57
2019-01-26T10:34:01.224Z,29.30
2019-01-26T10:36:38.281Z,26.17
2019-01-26T10:39:17.910Z,31.27
2019-01-26T10:41:57.632Z,32.77
2019-01-26T10:44:29.401Z,30.20
2019-01-26T10:46:59.717Z,30.80
2019-01-26T10:49:29.671Z,28.40
2019-01-26T10:51:59.635Z,27.17
2019-01-26T10:54:29.506Z,27.50
2019-01-26T10:56:59.476Z,22.13
2019-01-26T10:59:29.400Z,25.80
2019-01-26T11:01:59.336Z,24.03
2019-01-26T11:04:29.250Z,24.33
2019-01-26T11:06:59.156Z,25.67
2019-01-26T11:09:29.098Z,27.63
2019-01-26T11:11:59.073Z,22.47
2019-01-26T11:14:29.301Z,21.87
2019-01-26T11:16:59.473Z,27.17
2019-01-26T11:19:29.807Z,27.57
2019-01-26T11:21:59.911Z,23.17
2019-01-26T11:24:29.849Z,22.53
2019-01-26T11:27:00.353Z,19.67
2019-01-26T11:29:30.792Z,21.73
2019-01-26T11:32:00.778Z,24.73
2019-01-26T11:34:30.839Z,22.07
2019-01-26T11:37:00.801Z,20.93
2019-01-26T11:39:31.087Z,20.57
2019-01-26T11:42:00.996Z,27.13
2019-01-26T11:44:30.978Z,23.77
2019-01-26T11:47:03.498Z,20.03
2019-01-26T11:49:33.534Z,19.87
2019-01-26T11:52:07.478Z,18.53
2019-01-26T11:54:47.074Z,19.77
2019-01-26T11:57:19.118Z,26.07
2019-01-26T12:00:06.779Z,22.80
2019-01-26T12:02:48.746Z,16.50
2019-01-26T12:05:26.292Z,16.40
2019-01-26T12:07:56.392Z,16.00
2019-01-26T12:10:26.596Z,19.47
2019-01-26T12:12:56.635Z,27.07
2019-01-26T12:15:26.642Z,18.87
2019-01-26T12:17:56.587Z,20.13
2019-01-26T12:20:26.586Z,17.67
2019-01-26T12:22:56.654Z,17.97
2019-01-26T12:25:26.894Z,15.00
2019-01-26T12:27:56.776Z,17.53
2019-01-26T12:30:26.689Z,16.67
2019-01-26T12:32:56.606Z,17.47
2019-01-26T12:35:26.498Z,19.90
2019-01-26T12:37:56.418Z,14.57
2019-01-26T12:40:26.591Z,14.43
2019-01-26T12:42:56.503Z,14.67
2019-01-26T12:45:26.601Z,12.90
2019-01-26T12:47:56.556Z,15.37
2019-01-26T12:50:26.505Z,13.63
2019-01-26T12:52:56.722Z,12.57
2019-01-26T12:55:26.699Z,11.03
2019-01-26T12:57:56.666Z,11.33
2019-01-26T13:00:27.502Z,13.03
2019-01-26T13:02:57.518Z,11.50
2019-01-26T13:05:27.527Z,8.73
2019-01-26T13:07:57.746Z,10.00
2019-01-26T13:10:33.182Z,11.33
2019-01-26T13:13:03.688Z,10.70
2019-01-26T13:15:33.740Z,9.80
2019-01-26T13:18:03.805Z,10.57
2019-01-26T13:20:33.772Z,8.70
2019-01-26T13:23:04.099Z,7.20
2019-01-26T13:25:34.805Z,7.20
2019-01-26T13:28:05.320Z,7.43
2019-01-26T13:30:35.248Z,10.33
2019-01-26T13:33:05.440Z,7.17
2019-01-26T13:35:35.814Z,9.33
2019-01-26T13:38:06.360Z,7.33
2019-01-26T13:40:36.845Z,7.70
2019-01-26T13:43:06.857Z,8.13
2019-01-26T13:45:36.745Z,9.53
2019-01-26T13:48:06.767Z,6.23
2019-01-26T13:50:37.140Z,9.03
2019-01-26T13:53:07.222Z,6.73
2019-01-26T13:55:37.286Z,8.30
2019-01-26T13:58:07.399Z,6.13
2019-01-26T14:00:37.585Z,9.20
2019-01-26T14:03:07.839Z,10.50
2019-01-26T14:05:38.033Z,6.63
2019-01-26T14:08:08.050Z,6.60
2019-01-26T14:10:38.065Z,7.93
2019-01-26T14:13:08.223Z,7.70
2019-01-26T14:15:38.281Z,8.10
2019-01-26T14:18:08.321Z,16.00
2019-01-26T14:20:38.293Z,10.10
2019-01-26T14:23:08.263Z,10.27
2019-01-26T14:25:38.181Z,10.43
2019-01-26T14:28:08.213Z,8.47
2019-01-26T14:30:42.334Z,7.77
2019-01-26T14:33:12.237Z,10.27
2019-01-26T14:35:42.239Z,12.00
2019-01-26T14:38:12.289Z,9.50
2019-01-26T14:40:42.199Z,10.47
2019-01-26T14:43:12.317Z,8.33
2019-01-26T14:45:42.224Z,7.67
2019-01-26T14:48:12.107Z,10.00
2019-01-26T14:50:42.031Z,12.63
2019-01-26T14:53:12.396Z,11.33
2019-01-26T14:55:42.382Z,11.43
2019-01-26T14:58:12.407Z,9.83
2019-01-26T15:00:42.379Z,11.87
2019-01-26T15:03:12.292Z,11.13
2019-01-26T15:05:42.685Z,8.70
2019-01-26T15:08:12.826Z,7.83
2019-01-26T15:10:42.770Z,8.17
2019-01-26T15:13:12.732Z,13.57
2019-01-26T15:15:42.940Z,10.47
2019-01-26T15:18:13.183Z,9.13
2019-01-26T15:20:43.449Z,7.63
2019-01-26T15:23:13.525Z,6.90
2019-01-26T15:25:43.666Z,7.63
2019-01-26T15:28:13.726Z,8.73
2019-01-26T15:30:44.439Z,8.77
2019-01-26T15:33:16.154Z,8.43
2019-01-26T15:35:46.105Z,9.80
2019-01-26T15:38:16.114Z,10.67
2019-01-26T15:40:46.076Z,10.83
2019-01-26T15:43:16.408Z,8.67
2019-01-26T15:45:49.187Z,9.03
2019-01-26T15:48:19.341Z,9.47
2019-01-26T15:50:49.463Z,8.70
2019-01-26T15:53:19.786Z,9.20
2019-01-26T15:55:49.670Z,8.33
2019-01-26T15:58:19.593Z,9.20
2019-01-26T16:00:49.621Z,9.77
2019-01-26T16:03:19.637Z,10.30
2019-01-26T16:05:49.646Z,11.37
2019-01-26T16:08:19.632Z,12.77
2019-01-26T16:10:49.913Z,12.20
2019-01-26T16:13:20.079Z,11.57
2019-01-26T16:15:50.463Z,11.77
2019-01-26T16:18:20.838Z,11.30
2019-01-26T16:20:50.735Z,10.00
2019-01-26T16:23:20.649Z,11.33
2019-01-26T16:25:50.943Z,11.20
2019-01-26T16:28:20.906Z,11.47
2019-01-26T16:30:51.179Z,11.27
2019-01-26T16:33:21.364Z,11.57
2019-01-26T16:35:51.264Z,12.03
2019-01-26T16:38:21.781Z,12.17
2019-01-26T16:40:52.068Z,12.70
2019-01-26T16:43:22.389Z,12.97
2019-01-26T16:45:52.610Z,13.23
2019-01-26T16:48:22.517Z,14.50
2019-01-26T16:50:52.868Z,14.27
2019-01-26T16:53:23.071Z,13.57
2019-01-26T16:55:52.986Z,15.37
2019-01-26T16:58:22.921Z,15.43
2019-01-26T17:00:56.664Z,14.27
2019-01-26T17:03:26.733Z,55.93
2019-01-26T17:05:56.738Z,107.40
2019-01-26T17:08:26.827Z,34.33
2019-01-26T17:10:57.382Z,18.40
2019-01-26T17:13:27.368Z,16.60
2019-01-26T17:15:57.383Z,28.73
2019-01-26T17:18:27.635Z,16.10
2019-01-26T17:20:57.612Z,65.07
2019-01-26T17:23:28.245Z,21.10
2019-01-26T17:25:58.130Z,20.27
2019-01-26T17:28:28.210Z,20.53
2019-01-26T17:30:58.116Z,18.17
2019-01-26T17:33:28.343Z,19.70
2019-01-26T17:35:58.391Z,21.70
2019-01-26T17:38:28.337Z,22.93
2019-01-26T17:40:58.587Z,20.87
2019-01-26T17:43:28.486Z,24.93
2019-01-26T17:45:58.469Z,24.07
2019-01-26T17:48:28.474Z,22.63
2019-01-26T17:50:58.677Z,23.50
2019-01-26T17:53:28.685Z,24.27
2019-01-26T17:55:58.632Z,26.17
2019-01-26T17:58:28.680Z,29.87
2019-01-26T18:00:59.636Z,31.40
2019-01-26T18:03:29.599Z,25.50
2019-01-26T18:05:59.721Z,24.90
2019-01-26T18:08:29.970Z,33.73
2019-01-26T18:10:59.875Z,57.20
2019-01-26T18:13:30.050Z,38.23
2019-01-26T18:16:00.229Z,30.03
2019-01-26T18:18:30.274Z,29.20
2019-01-26T18:21:00.200Z,25.27
2019-01-26T18:23:32.567Z,31.20
2019-01-26T18:26:02.750Z,82.80
2019-01-26T18:28:32.729Z,48.20
2019-01-26T18:31:02.733Z,27.63
2019-01-26T18:33:32.644Z,21.67
2019-01-26T18:36:02.631Z,24.13
2019-01-26T18:38:32.551Z,22.80
2019-01-26T18:41:02.535Z,23.73
2019-01-26T18:43:32.991Z,24.83
2019-01-26T18:46:03.190Z,25.93
2019-01-26T18:48:33.538Z,23.67
2019-01-26T18:51:03.478Z,23.80
2019-01-26T18:53:33.468Z,25.27
2019-01-26T18:56:03.725Z,23.97
2019-01-26T18:58:34.091Z,25.00
2019-01-26T19:01:04.539Z,54.70
2019-01-26T19:04:08.811Z,28.70
2019-01-26T19:06:39.067Z,27.40
2019-01-26T19:09:12.112Z,49.30
2019-01-26T19:11:42.399Z,28.13
2019-01-26T19:14:12.458Z,29.47
2019-01-26T19:16:42.747Z,19.07
2019-01-26T19:19:13.632Z,22.17
2019-01-26T19:21:43.582Z,23.40
2019-01-26T19:24:13.801Z,22.50
2019-01-26T19:26:43.832Z,21.13
2019-01-26T19:29:13.750Z,23.10
2019-01-26T19:31:43.724Z,24.63
2019-01-26T19:34:13.765Z,21.10
2019-01-26T19:36:44.098Z,22.33
2019-01-26T19:39:14.130Z,26.37
2019-01-26T19:41:44.053Z,46.20
2019-01-26T19:44:13.974Z,21.27
2019-01-26T19:46:44.248Z,21.13
2019-01-26T19:49:14.163Z,19.47
2019-01-26T19:51:44.395Z,18.47
2019-01-26T19:54:14.707Z,23.93
2019-01-26T19:56:44.758Z,32.90
2019-01-26T19:59:14.696Z,25.63
2019-01-26T20:01:44.783Z,40.03
2019-01-26T20:04:14.833Z,23.83
2019-01-26T20:06:45.061Z,39.80
2019-01-26T20:09:16.320Z,45.20
2019-01-26T20:11:46.669Z,40.07
2019-01-26T20:14:17.461Z,21.77
2019-01-26T20:16:47.776Z,22.00
2019-01-26T20:19:18.019Z,21.20
2019-01-26T20:21:48.239Z,20.80
2019-01-26T20:24:18.474Z,19.60
2019-01-26T20:26:48.494Z,21.83
2019-01-26T20:29:18.561Z,21.30
2019-01-26T20:31:49.079Z,23.43
2019-01-26T20:34:19.088Z,59.70
2019-01-26T20:36:49.377Z,30.63
2019-01-26T20:39:19.242Z,63.47
2019-01-26T20:41:49.142Z,34.60
2019-01-26T20:44:19.146Z,29.03
2019-01-26T20:46:49.580Z,19.73
2019-01-26T20:49:19.623Z,19.20
2019-01-26T20:51:49.672Z,33.10
2019-01-26T20:54:20.004Z,24.77
2019-01-26T20:56:50.010Z,59.07
2019-01-26T20:59:19.960Z,50.23
2019-01-26T21:01:49.943Z,45.47
2019-01-26T21:04:20.280Z,21.53
2019-01-26T21:06:50.277Z,18.93
2019-01-26T21:09:20.628Z,18.70
2019-01-26T21:11:50.719Z,18.23
2019-01-26T21:14:20.703Z,18.37
2019-01-26T21:16:50.884Z,17.87
2019-01-26T21:19:21.411Z,18.63
2019-01-26T21:21:51.335Z,13.87
2019-01-26T21:24:21.242Z,21.27
2019-01-26T21:26:51.441Z,21.10
2019-01-26T21:29:21.804Z,18.17
2019-01-26T21:31:51.770Z,16.93
2019-01-26T21:34:21.930Z,18.53
2019-01-26T21:36:52.010Z,17.20
2019-01-26T21:39:22.276Z,19.97
2019-01-26T21:41:52.585Z,19.00
2019-01-26T21:44:22.797Z,18.07
2019-01-26T21:46:52.789Z,20.27
2019-01-26T21:49:22.802Z,19.63
2019-01-26T21:51:52.705Z,20.40
2019-01-26T21:54:22.639Z,27.50
2019-01-26T21:56:52.908Z,22.37
2019-01-26T21:59:23.030Z,22.57
2019-01-26T22:01:53.040Z,21.43
2019-01-26T22:04:23.017Z,29.43
2019-01-26T22:06:53.185Z,30.43
2019-01-26T22:09:23.434Z,32.97
2019-01-26T22:11:54.145Z,23.87
2019-01-26T22:14:24.296Z,30.70
2019-01-26T22:16:54.579Z,29.47
2019-01-26T22:19:25.123Z,31.13
2019-01-26T22:21:55.144Z,31.47
2019-01-26T22:24:25.221Z,31.70
2019-01-26T22:26:55.360Z,29.50
2019-01-26T22:29:31.160Z,30.00
2019-01-26T22:31:56.967Z,27.87
2019-01-26T22:34:26.909Z,30.53
2019-01-26T22:36:56.822Z,33.20
2019-01-26T22:39:26.731Z,36.03
2019-01-26T22:41:56.790Z,28.37
2019-01-26T22:44:27.073Z,36.63
2019-01-26T22:46:57.307Z,33.60
2019-01-26T22:49:27.259Z,35.70
2019-01-26T22:51:57.419Z,35.37
2019-01-26T22:54:27.362Z,31.40
2019-01-26T22:56:57.509Z,32.33
2019-01-26T22:59:27.376Z,31.63
2019-01-26T23:01:58.130Z,38.50
2019-01-26T23:04:39.374Z,43.07
2019-01-26T23:07:43.909Z,36.13
2019-01-26T23:11:19.871Z,35.97
2019-01-26T23:14:04.000Z,40.10
2019-01-26T23:17:21.572Z,36.83
2019-01-26T23:20:50.263Z,38.47
2019-01-26T23:24:27.773Z,43.23
2019-01-26T23:27:47.029Z,38.23
2019-01-26T23:30:46.685Z,30.03
2019-01-26T23:33:16.750Z,38.97
2019-01-26T23:35:46.638Z,53.90
2019-01-26T23:38:16.570Z,36.93
2019-01-26T23:40:46.644Z,43.53
2019-01-26T23:43:16.918Z,42.20
2019-01-26T23:45:46.841Z,42.80
2019-01-26T23:48:16.778Z,39.03
2019-01-26T23:50:46.677Z,37.50
2019-01-26T23:53:17.015Z,40.03
2019-01-26T23:55:46.903Z,31.73
2019-01-26T23:58:16.972Z,38.13
